This is the latest recevied weather packets stored in our database for station/object EA6MW-10. If no packets are shown the sender has not sent any weather packets the latest 10 day(s).
| Time | Temp. | Humidity | Pressure | Rain* | Wind** | Luminosity | Snow |
|---|---|---|---|---|---|---|---|
| 1777474150 | 22.78° C | 59% | 1011.7 hPa | - | - | - | - |
| 1777473102 | 24.44° C | 56% | 1011.4 hPa | - | - | - | - |
| 1777468082 | 27.22° C | 51% | 1011.9 hPa | - | - | - | - |
| 1777467182 | 28.89° C | 49% | 1011.8 hPa | - | - | - | - |
| 1777466282 | 28.89° C | 49% | 1011.9 hPa | - | - | - | - |
| 1777465381 | 28.33° C | 50% | 1012 hPa | - | - | - | - |
| 1777464481 | 30° C | 47% | 1012 hPa | - | - | - | - |
| 1777463580 | 29.44° C | 47% | 1012.1 hPa | - | - | - | - |
| 1777462680 | 30° C | 45% | 1012.1 hPa | - | - | - | - |
| 1777461780 | 29.44° C | 47% | 1012.3 hPa | - | - | - | - |
| 1777460879 | 30.56° C | 44% | 1012.1 hPa | - | - | - | - |
| 1777459979 | 28.89° C | 45% | 1012.3 hPa | - | - | - | - |
| 1777459078 | 30.56° C | 43% | 1012.3 hPa | - | - | - | - |
| 1777458178 | 30° C | 45% | 1012.3 hPa | - | - | - | - |
| 1777457278 | 27.78° C | 48% | 1012.3 hPa | - | - | - | - |
| 1777456378 | 30° C | 44% | 1012 hPa | - | - | - | - |
| 1777455478 | 28.33° C | 44% | 1011.8 hPa | - | - | - | - |
| 1777454577 | 30.56° C | 40% | 1011.8 hPa | - | - | - | - |
| 1777453677 | 28.89° C | 40% | 1012 hPa | - | - | - | - |
| 1777452776 | 29.44° C | 40% | 1011.7 hPa | - | - | - | - |
| 1777451876 | 28.33° C | 39% | 1011.4 hPa | - | - | - | - |
| 1777450976 | 30.56° C | 38% | 1011.3 hPa | - | - | - | - |
| 1777450076 | 31.67° C | 38% | 1011.2 hPa | - | - | - | - |
| 1777449179 | 30° C | 40% | 1011.3 hPa | - | - | - | - |
| 1777448065 | 27.22° C | 48% | 1011.3 hPa | - | - | - | - |
* Rain since midnight (hover to see other rain measurements)
** Current wind speed in m/s (hover to see current wind gust speed)